createdAt,value
2022-08-19T00:01:22.008Z,-79
2022-08-19T00:06:30.746Z,-80
2022-08-19T00:11:39.853Z,-80
2022-08-19T00:16:48.151Z,-80
2022-08-19T00:21:56.250Z,-79
2022-08-19T00:27:03.410Z,-79
2022-08-19T00:32:11.925Z,-80
2022-08-19T00:37:20.007Z,-79
2022-08-19T00:42:27.382Z,-79
2022-08-19T00:47:35.770Z,-78
2022-08-19T00:52:43.696Z,-78
2022-08-19T00:57:51.722Z,-79
2022-08-19T01:03:00.206Z,-79
2022-08-19T01:08:07.625Z,-78
2022-08-19T01:13:15.096Z,-78
2022-08-19T01:18:22.886Z,-78
2022-08-19T01:23:29.500Z,-80
2022-08-19T01:28:37.083Z,-80
2022-08-19T01:33:50.868Z,-80
2022-08-19T01:38:58.218Z,-77
2022-08-19T01:44:06.267Z,-78
2022-08-19T01:49:14.481Z,-79
2022-08-19T01:54:23.438Z,-78
2022-08-19T01:59:32.749Z,-79
2022-08-19T02:04:41.041Z,-78
2022-08-19T02:09:49.151Z,-78
2022-08-19T02:14:56.871Z,-80
2022-08-19T02:20:04.572Z,-80
2022-08-19T02:25:12.371Z,-79
2022-08-19T02:30:19.328Z,-79
2022-08-19T02:35:27.448Z,-78
2022-08-19T02:40:34.597Z,-78
2022-08-19T02:45:42.591Z,-79
2022-08-19T02:55:47.634Z,-81
2022-08-19T03:00:53.682Z,-78
2022-08-19T03:06:01.828Z,-78
2022-08-19T03:11:09.017Z,-78
2022-08-19T03:16:17.375Z,-80
2022-08-19T03:21:24.898Z,-80
2022-08-19T03:26:31.919Z,-79
2022-08-19T03:31:39.767Z,-80
2022-08-19T03:36:46.954Z,-80
2022-08-19T03:41:54.137Z,-79
2022-08-19T03:47:02.823Z,-78
2022-08-19T03:52:09.995Z,-78
2022-08-19T03:57:17.650Z,-78
2022-08-19T04:02:24.411Z,-80
2022-08-19T04:07:32.977Z,-79
2022-08-19T04:12:41.584Z,-80
2022-08-19T04:17:49.947Z,-79
2022-08-19T04:22:57.529Z,-78
2022-08-19T04:28:05.170Z,-80
2022-08-19T04:33:13.196Z,-80
2022-08-19T04:38:21.016Z,-78
2022-08-19T04:43:28.484Z,-79
2022-08-19T04:48:36.063Z,-80
2022-08-19T04:53:44.706Z,-80
2022-08-19T04:58:52.565Z,-80
2022-08-19T05:04:00.250Z,-79
2022-08-19T05:09:09.118Z,-79
2022-08-19T05:14:16.542Z,-79
2022-08-19T05:19:23.736Z,-79
2022-08-19T05:24:32.178Z,-79
2022-08-19T05:29:41.605Z,-78
2022-08-19T05:34:50.963Z,-77
2022-08-19T05:40:00.276Z,-78
2022-08-19T05:45:07.423Z,-79
2022-08-19T05:50:15.290Z,-80
2022-08-19T05:55:23.312Z,-79
2022-08-19T06:00:29.726Z,-78
2022-08-19T06:05:36.892Z,-80
2022-08-19T06:10:45.275Z,-79
2022-08-19T06:15:53.696Z,-79
2022-08-19T06:21:03.651Z,-79
2022-08-19T06:26:10.819Z,-79
2022-08-19T06:31:18.240Z,-80
2022-08-19T06:36:25.951Z,-79
2022-08-19T06:41:34.713Z,-79
2022-08-19T06:46:42.132Z,-79
2022-08-19T06:51:50.438Z,-79
2022-08-19T06:56:58.160Z,-78
2022-08-19T07:02:06.442Z,-79
2022-08-19T07:07:15.928Z,-78
2022-08-19T07:12:24.789Z,-78
2022-08-19T07:17:32.525Z,-77
2022-08-19T07:22:40.812Z,-78
2022-08-19T07:27:48.907Z,-77
2022-08-19T07:32:55.921Z,-79
2022-08-19T07:38:03.781Z,-78
2022-08-19T07:43:12.093Z,-81
2022-08-19T07:48:20.211Z,-79
2022-08-19T07:53:27.900Z,-78
2022-08-19T07:58:36.891Z,-78
2022-08-19T08:03:44.238Z,-78
2022-08-19T08:08:50.814Z,-78
2022-08-19T08:13:59.193Z,-78
2022-08-19T08:19:07.370Z,-79
2022-08-19T08:24:16.077Z,-77
2022-08-19T08:29:23.417Z,-77
2022-08-19T08:34:31.449Z,-80
2022-08-19T08:39:39.670Z,-77
2022-08-19T08:44:47.451Z,-81
2022-08-19T08:49:54.784Z,-78
2022-08-19T08:55:01.339Z,-79
2022-08-19T09:00:08.543Z,-81
2022-08-19T09:05:15.090Z,-78
2022-08-19T09:10:23.583Z,-78
2022-08-19T09:15:30.782Z,-80
2022-08-19T09:20:38.604Z,-80
2022-08-19T09:25:47.609Z,-78
2022-08-19T09:30:55.187Z,-77
2022-08-19T09:36:03.293Z,-79
2022-08-19T09:41:10.653Z,-79
2022-08-19T09:46:17.212Z,-77
2022-08-19T09:51:24.564Z,-77
2022-08-19T09:56:32.464Z,-79
2022-08-19T10:02:21.714Z,-78
2022-08-19T10:07:30.044Z,-79
2022-08-19T10:12:37.660Z,-77
2022-08-19T10:17:44.950Z,-77
2022-08-19T10:22:54.253Z,-78
2022-08-19T10:28:01.010Z,-77
2022-08-19T10:33:09.019Z,-79
2022-08-19T10:38:21.967Z,-77
2022-08-19T10:43:31.528Z,-77
2022-08-19T10:48:39.776Z,-79
2022-08-19T10:53:47.133Z,-79
2022-08-19T10:58:54.566Z,-78
2022-08-19T11:04:01.694Z,-80
2022-08-19T11:09:10.381Z,-77
2022-08-19T11:14:18.091Z,-78
2022-08-19T11:19:26.301Z,-78
2022-08-19T11:24:33.866Z,-80
2022-08-19T11:29:41.686Z,-79
2022-08-19T11:34:48.343Z,-78
2022-08-19T11:39:56.138Z,-80
2022-08-19T11:45:03.450Z,-78
2022-08-19T11:50:10.407Z,-77
2022-08-19T11:55:18.217Z,-77
2022-08-19T12:00:25.958Z,-80
2022-08-19T12:05:34.998Z,-79
2022-08-19T12:10:42.796Z,-77
2022-08-19T12:15:49.985Z,-77
2022-08-19T12:20:57.184Z,-77
2022-08-19T12:26:05.017Z,-78
2022-08-19T12:31:12.377Z,-76
2022-08-19T12:36:19.996Z,-77
2022-08-19T12:41:29.130Z,-77
2022-08-19T12:46:35.768Z,-77
2022-08-19T12:51:43.617Z,-79
2022-08-19T12:56:51.825Z,-76
2022-08-19T13:01:59.853Z,-79
2022-08-19T13:07:07.741Z,-77
2022-08-19T13:12:14.977Z,-76
2022-08-19T13:17:22.652Z,-77
2022-08-19T13:22:33.345Z,-80
2022-08-19T13:27:40.596Z,-79
2022-08-19T13:32:47.588Z,-77
2022-08-19T13:37:55.796Z,-77
2022-08-19T13:43:02.861Z,-80
2022-08-19T13:48:09.827Z,-78
2022-08-19T13:53:17.659Z,-76
2022-08-19T13:58:24.856Z,-77
2022-08-19T14:03:33.732Z,-77
2022-08-19T14:08:41.466Z,-77
2022-08-19T14:13:50.114Z,-79
2022-08-19T14:19:00.567Z,-77
2022-08-19T14:24:10.744Z,-76
2022-08-19T14:29:18.618Z,-79
2022-08-19T14:34:26.535Z,-77
2022-08-19T14:39:33.978Z,-79
2022-08-19T14:44:41.811Z,-76
2022-08-19T14:49:50.087Z,-80
2022-08-19T14:54:56.885Z,-77
2022-08-19T15:00:04.696Z,-77
2022-08-19T15:05:17.014Z,-77
2022-08-19T15:10:22.969Z,-76
2022-08-19T15:15:30.517Z,-77
2022-08-19T15:20:37.370Z,-76
2022-08-19T15:25:44.242Z,-79
2022-08-19T15:30:51.714Z,-79
2022-08-19T15:35:58.277Z,-79
2022-08-19T15:41:05.490Z,-77
2022-08-19T15:46:13.288Z,-78
2022-08-19T15:51:19.894Z,-79
2022-08-19T15:56:27.130Z,-79
2022-08-19T16:01:34.728Z,-76
2022-08-19T16:06:41.660Z,-76
2022-08-19T16:11:49.818Z,-80
2022-08-19T16:16:57.201Z,-76
2022-08-19T16:22:05.667Z,-76
2022-08-19T16:27:12.879Z,-79
2022-08-19T16:32:21.185Z,-76
2022-08-19T16:37:27.898Z,-77
2022-08-19T16:42:35.824Z,-79
2022-08-19T16:47:43.014Z,-79
2022-08-19T16:52:51.122Z,-76
2022-08-19T16:57:59.183Z,-79
2022-08-19T17:03:08.094Z,-76
2022-08-19T17:08:15.614Z,-76
2022-08-19T17:13:23.253Z,-76
2022-08-19T17:18:30.615Z,-76
2022-08-19T17:23:38.650Z,-75
2022-08-19T17:28:45.049Z,-78
2022-08-19T17:33:52.217Z,-75
2022-08-19T17:38:58.776Z,-77
2022-08-19T17:44:07.829Z,-75
2022-08-19T17:49:15.669Z,-75
2022-08-19T17:54:23.317Z,-76
2022-08-19T17:59:30.188Z,-78
2022-08-19T18:04:38.326Z,-74
2022-08-19T18:09:46.443Z,-75
2022-08-19T18:14:54.294Z,-75
2022-08-19T18:20:02.492Z,-75
2022-08-19T18:25:09.375Z,-74
2022-08-19T18:30:17.441Z,-75
2022-08-19T18:35:25.384Z,-75
2022-08-19T18:40:32.477Z,-75
2022-08-19T18:45:40.461Z,-77
2022-08-19T18:50:47.293Z,-75
2022-08-19T18:55:55.648Z,-74
2022-08-19T19:01:03.323Z,-77
2022-08-19T19:06:11.888Z,-74
2022-08-19T19:11:19.764Z,-75
2022-08-19T19:16:26.879Z,-74
2022-08-19T19:21:35.147Z,-77
2022-08-19T19:26:43.038Z,-75
2022-08-19T19:31:49.713Z,-75
2022-08-19T19:36:57.211Z,-77
2022-08-19T19:42:04.378Z,-76
2022-08-19T19:47:12.842Z,-75
2022-08-19T19:52:20.551Z,-73
2022-08-19T19:57:28.681Z,-75
2022-08-19T20:02:36.076Z,-75
2022-08-19T20:07:44.726Z,-75
2022-08-19T20:12:52.051Z,-76
2022-08-19T20:18:00.411Z,-76
2022-08-19T20:23:08.639Z,-74
2022-08-19T20:28:16.425Z,-77
2022-08-19T20:33:23.462Z,-77
2022-08-19T20:38:30.669Z,-75
2022-08-19T20:43:37.864Z,-74
2022-08-19T20:48:45.058Z,-75
2022-08-19T20:53:52.257Z,-74
2022-08-19T20:58:59.716Z,-74
2022-08-19T21:04:07.814Z,-77
2022-08-19T21:09:16.197Z,-76
2022-08-19T21:14:25.040Z,-74
2022-08-19T21:19:33.401Z,-74
2022-08-19T21:24:40.601Z,-76
2022-08-19T21:29:49.083Z,-74
2022-08-19T21:34:56.851Z,-77
2022-08-19T21:40:04.555Z,-74
2022-08-19T21:45:13.118Z,-76
2022-08-19T21:50:20.463Z,-76
2022-08-19T21:55:26.934Z,-73
2022-08-19T22:00:34.172Z,-73
2022-08-19T22:05:42.277Z,-76
2022-08-19T22:10:56.446Z,-72
2022-08-19T22:16:05.119Z,-73
2022-08-19T22:21:13.727Z,-74
2022-08-19T22:26:20.376Z,-73
2022-08-19T22:31:27.726Z,-76
2022-08-19T22:36:35.562Z,-76
2022-08-19T22:41:43.761Z,-75
2022-08-19T22:46:50.582Z,-76
2022-08-19T22:51:58.300Z,-73
2022-08-19T22:57:09.561Z,-76
2022-08-19T22:58:43.078Z,-74
2022-08-19T23:03:49.977Z,-76
2022-08-19T23:08:56.572Z,-73
2022-08-19T23:14:05.015Z,-76
2022-08-19T23:19:13.101Z,-75
2022-08-19T23:24:21.724Z,-76
2022-08-19T23:29:29.769Z,-76
2022-08-19T23:34:37.050Z,-74
2022-08-19T23:39:43.573Z,-74
2022-08-19T23:44:51.450Z,-74
2022-08-19T23:50:00.406Z,-74
2022-08-19T23:55:09.514Z,-74
